sensor_id;sensor_type;location;lat;lon;timestamp;temperature;humidity
11764;DHT22;5939;56.522;14.950;2022-11-12T00:00:44;13.10;99.90
11764;DHT22;5939;56.522;14.950;2022-11-12T00:03:10;13.10;99.90
11764;DHT22;5939;56.522;14.950;2022-11-12T00:05:36;13.10;99.90
11764;DHT22;5939;56.522;14.950;2022-11-12T00:08:02;13.10;99.90
11764;DHT22;5939;56.522;14.950;2022-11-12T00:10:28;13.10;99.90
11764;DHT22;5939;56.522;14.950;2022-11-12T00:12:54;13.10;99.90
11764;DHT22;5939;56.522;14.950;2022-11-12T00:15:20;13.10;99.90
11764;DHT22;5939;56.522;14.950;2022-11-12T00:17:45;13.10;99.90
11764;DHT22;5939;56.522;14.950;2022-11-12T00:20:11;13.10;99.90
11764;DHT22;5939;56.522;14.950;2022-11-12T00:22:38;13.10;99.90
11764;DHT22;5939;56.522;14.950;2022-11-12T00:25:04;13.10;99.90
11764;DHT22;5939;56.522;14.950;2022-11-12T00:27:31;13.10;99.90
11764;DHT22;5939;56.522;14.950;2022-11-12T00:29:57;13.10;99.90
11764;DHT22;5939;56.522;14.950;2022-11-12T00:32:23;13.10;99.90
11764;DHT22;5939;56.522;14.950;2022-11-12T00:34:48;13.10;99.90
11764;DHT22;5939;56.522;14.950;2022-11-12T00:37:14;13.10;99.90
11764;DHT22;5939;56.522;14.950;2022-11-12T00:39:41;13.10;99.90
11764;DHT22;5939;56.522;14.950;2022-11-12T00:42:07;13.10;99.90
11764;DHT22;5939;56.522;14.950;2022-11-12T00:44:32;13.10;99.90
11764;DHT22;5939;56.522;14.950;2022-11-12T00:46:58;13.10;99.90
11764;DHT22;5939;56.522;14.950;2022-11-12T00:49:24;13.10;99.90
11764;DHT22;5939;56.522;14.950;2022-11-12T00:51:49;13.10;99.90
11764;DHT22;5939;56.522;14.950;2022-11-12T00:54:15;13.10;99.90
11764;DHT22;5939;56.522;14.950;2022-11-12T00:56:41;13.10;99.90
11764;DHT22;5939;56.522;14.950;2022-11-12T00:59:06;13.10;99.90
11764;DHT22;5939;56.522;14.950;2022-11-12T01:01:32;13.10;99.90
11764;DHT22;5939;56.522;14.950;2022-11-12T01:03:59;13.10;99.90
11764;DHT22;5939;56.522;14.950;2022-11-12T01:06:25;13.10;99.90
11764;DHT22;5939;56.522;14.950;2022-11-12T01:08:53;13.10;99.90
11764;DHT22;5939;56.522;14.950;2022-11-12T01:11:29;13.00;99.90
11764;DHT22;5939;56.522;14.950;2022-11-12T01:13:58;13.10;99.90
11764;DHT22;5939;56.522;14.950;2022-11-12T01:16:27;13.00;99.90
11764;DHT22;5939;56.522;14.950;2022-11-12T01:18:55;13.10;99.90
11764;DHT22;5939;56.522;14.950;2022-11-12T01:21:22;13.10;99.90
11764;DHT22;5939;56.522;14.950;2022-11-12T01:23:48;13.10;99.90
11764;DHT22;5939;56.522;14.950;2022-11-12T01:26:16;13.10;99.90
11764;DHT22;5939;56.522;14.950;2022-11-12T01:28:42;13.10;99.90
11764;DHT22;5939;56.522;14.950;2022-11-12T01:33:46;13.10;99.90
11764;DHT22;5939;56.522;14.950;2022-11-12T01:36:13;13.10;99.90
11764;DHT22;5939;56.522;14.950;2022-11-12T01:38:40;13.10;99.90
11764;DHT22;5939;56.522;14.950;2022-11-12T01:41:08;13.10;99.90
11764;DHT22;5939;56.522;14.950;2022-11-12T01:43:34;13.10;99.90
11764;DHT22;5939;56.522;14.950;2022-11-12T01:46:03;13.00;99.90
11764;DHT22;5939;56.522;14.950;2022-11-12T01:48:36;13.10;99.90
11764;DHT22;5939;56.522;14.950;2022-11-12T01:51:02;13.10;99.90
11764;DHT22;5939;56.522;14.950;2022-11-12T01:53:33;13.00;99.90
11764;DHT22;5939;56.522;14.950;2022-11-12T01:56:01;13.10;99.90
11764;DHT22;5939;56.522;14.950;2022-11-12T01:58:28;13.10;99.90
11764;DHT22;5939;56.522;14.950;2022-11-12T02:00:56;13.10;99.90
11764;DHT22;5939;56.522;14.950;2022-11-12T02:03:23;13.10;99.90
11764;DHT22;5939;56.522;14.950;2022-11-12T02:05:59;13.10;99.90
11764;DHT22;5939;56.522;14.950;2022-11-12T02:08:27;13.10;99.90
11764;DHT22;5939;56.522;14.950;2022-11-12T02:10:53;13.10;99.90
11764;DHT22;5939;56.522;14.950;2022-11-12T02:13:19;13.10;99.90
11764;DHT22;5939;56.522;14.950;2022-11-12T02:16:04;13.10;99.90
11764;DHT22;5939;56.522;14.950;2022-11-12T02:18:31;13.10;99.90
11764;DHT22;5939;56.522;14.950;2022-11-12T02:21:02;13.10;99.90
11764;DHT22;5939;56.522;14.950;2022-11-12T02:23:28;13.10;99.90
11764;DHT22;5939;56.522;14.950;2022-11-12T02:25:53;13.10;99.90
11764;DHT22;5939;56.522;14.950;2022-11-12T02:28:19;13.10;99.90
11764;DHT22;5939;56.522;14.950;2022-11-12T02:30:47;13.10;99.90
11764;DHT22;5939;56.522;14.950;2022-11-12T02:33:13;13.10;99.90
11764;DHT22;5939;56.522;14.950;2022-11-12T02:35:39;13.10;99.90
11764;DHT22;5939;56.522;14.950;2022-11-12T02:38:06;13.10;99.90
11764;DHT22;5939;56.522;14.950;2022-11-12T02:40:32;13.10;99.90
11764;DHT22;5939;56.522;14.950;2022-11-12T02:42:58;13.10;99.90
11764;DHT22;5939;56.522;14.950;2022-11-12T02:45:24;13.10;99.90
11764;DHT22;5939;56.522;14.950;2022-11-12T02:47:50;13.10;99.90
11764;DHT22;5939;56.522;14.950;2022-11-12T02:50:16;13.10;99.90
11764;DHT22;5939;56.522;14.950;2022-11-12T02:52:42;13.10;99.90
11764;DHT22;5939;56.522;14.950;2022-11-12T02:55:09;13.10;99.90
11764;DHT22;5939;56.522;14.950;2022-11-12T02:57:36;13.10;99.90
11764;DHT22;5939;56.522;14.950;2022-11-12T03:00:07;13.10;99.90
11764;DHT22;5939;56.522;14.950;2022-11-12T03:02:33;13.10;99.90
11764;DHT22;5939;56.522;14.950;2022-11-12T03:04:59;13.10;99.90
11764;DHT22;5939;56.522;14.950;2022-11-12T03:07:25;13.10;99.90
11764;DHT22;5939;56.522;14.950;2022-11-12T03:09:50;13.10;99.90
11764;DHT22;5939;56.522;14.950;2022-11-12T03:12:16;13.10;99.90
11764;DHT22;5939;56.522;14.950;2022-11-12T03:14:42;13.10;99.90
11764;DHT22;5939;56.522;14.950;2022-11-12T03:17:08;13.10;99.90
11764;DHT22;5939;56.522;14.950;2022-11-12T03:19:33;13.10;99.90
11764;DHT22;5939;56.522;14.950;2022-11-12T03:21:59;13.10;99.90
11764;DHT22;5939;56.522;14.950;2022-11-12T03:24:24;13.10;99.90
11764;DHT22;5939;56.522;14.950;2022-11-12T03:26:51;13.10;99.90
11764;DHT22;5939;56.522;14.950;2022-11-12T03:29:16;13.10;99.90
11764;DHT22;5939;56.522;14.950;2022-11-12T03:31:42;13.10;99.90
11764;DHT22;5939;56.522;14.950;2022-11-12T03:34:09;13.10;99.90
11764;DHT22;5939;56.522;14.950;2022-11-12T03:36:34;13.10;99.90
11764;DHT22;5939;56.522;14.950;2022-11-12T03:39:00;13.10;99.90
11764;DHT22;5939;56.522;14.950;2022-11-12T03:41:26;13.10;99.90
11764;DHT22;5939;56.522;14.950;2022-11-12T03:43:51;13.10;99.90
11764;DHT22;5939;56.522;14.950;2022-11-12T03:46:17;13.10;99.90
11764;DHT22;5939;56.522;14.950;2022-11-12T03:48:42;13.10;99.90
11764;DHT22;5939;56.522;14.950;2022-11-12T03:51:08;13.10;99.90
11764;DHT22;5939;56.522;14.950;2022-11-12T03:53:36;13.10;99.90
11764;DHT22;5939;56.522;14.950;2022-11-12T03:56:02;13.10;99.90
11764;DHT22;5939;56.522;14.950;2022-11-12T03:58:27;13.10;99.90
11764;DHT22;5939;56.522;14.950;2022-11-12T04:00:53;13.10;99.90
11764;DHT22;5939;56.522;14.950;2022-11-12T04:03:19;13.10;99.90
11764;DHT22;5939;56.522;14.950;2022-11-12T04:05:44;13.10;99.90
11764;DHT22;5939;56.522;14.950;2022-11-12T04:08:29;13.10;99.90
11764;DHT22;5939;56.522;14.950;2022-11-12T04:11:10;13.10;99.90
11764;DHT22;5939;56.522;14.950;2022-11-12T04:13:41;13.10;99.90
11764;DHT22;5939;56.522;14.950;2022-11-12T04:18:55;13.10;99.90
11764;DHT22;5939;56.522;14.950;2022-11-12T04:22:04;13.10;99.90
11764;DHT22;5939;56.522;14.950;2022-11-12T04:24:36;13.10;99.90
11764;DHT22;5939;56.522;14.950;2022-11-12T04:29:52;13.10;99.90
11764;DHT22;5939;56.522;14.950;2022-11-12T04:32:38;13.10;99.90
11764;DHT22;5939;56.522;14.950;2022-11-12T04:35:07;13.20;99.90
11764;DHT22;5939;56.522;14.950;2022-11-12T04:37:34;13.10;99.90
11764;DHT22;5939;56.522;14.950;2022-11-12T04:40:14;13.10;99.90
11764;DHT22;5939;56.522;14.950;2022-11-12T04:42:59;13.10;99.90
11764;DHT22;5939;56.522;14.950;2022-11-12T04:45:46;13.10;99.90
11764;DHT22;5939;56.522;14.950;2022-11-12T04:48:12;13.20;99.90
11764;DHT22;5939;56.522;14.950;2022-11-12T04:50:38;13.20;99.90
11764;DHT22;5939;56.522;14.950;2022-11-12T04:53:05;13.10;99.90
11764;DHT22;5939;56.522;14.950;2022-11-12T04:55:31;13.10;99.90
11764;DHT22;5939;56.522;14.950;2022-11-12T04:57:57;13.10;99.90
11764;DHT22;5939;56.522;14.950;2022-11-12T05:00:22;13.20;99.90
11764;DHT22;5939;56.522;14.950;2022-11-12T05:02:49;13.20;99.90
11764;DHT22;5939;56.522;14.950;2022-11-12T05:05:15;13.20;99.90
11764;DHT22;5939;56.522;14.950;2022-11-12T05:07:40;13.10;99.90
11764;DHT22;5939;56.522;14.950;2022-11-12T05:10:07;13.10;99.90
11764;DHT22;5939;56.522;14.950;2022-11-12T05:12:33;13.20;99.90
11764;DHT22;5939;56.522;14.950;2022-11-12T05:14:58;13.20;99.90
11764;DHT22;5939;56.522;14.950;2022-11-12T05:17:24;13.20;99.90
11764;DHT22;5939;56.522;14.950;2022-11-12T05:19:50;13.20;99.90
11764;DHT22;5939;56.522;14.950;2022-11-12T05:22:15;13.20;99.90
11764;DHT22;5939;56.522;14.950;2022-11-12T05:24:42;13.20;99.90
11764;DHT22;5939;56.522;14.950;2022-11-12T05:27:17;13.20;99.90
11764;DHT22;5939;56.522;14.950;2022-11-12T05:29:43;13.20;99.90
11764;DHT22;5939;56.522;14.950;2022-11-12T05:32:14;13.20;99.90
11764;DHT22;5939;56.522;14.950;2022-11-12T05:34:41;13.20;99.90
11764;DHT22;5939;56.522;14.950;2022-11-12T05:37:07;13.20;99.90
11764;DHT22;5939;56.522;14.950;2022-11-12T05:39:33;13.20;99.90
11764;DHT22;5939;56.522;14.950;2022-11-12T05:41:59;13.20;99.90
11764;DHT22;5939;56.522;14.950;2022-11-12T05:44:24;13.20;99.90
11764;DHT22;5939;56.522;14.950;2022-11-12T05:46:50;13.20;99.90
11764;DHT22;5939;56.522;14.950;2022-11-12T05:49:16;13.20;99.90
11764;DHT22;5939;56.522;14.950;2022-11-12T05:51:43;13.20;99.90
11764;DHT22;5939;56.522;14.950;2022-11-12T05:54:08;13.20;99.90
11764;DHT22;5939;56.522;14.950;2022-11-12T05:56:35;13.20;99.90
11764;DHT22;5939;56.522;14.950;2022-11-12T05:59:02;13.20;99.90
11764;DHT22;5939;56.522;14.950;2022-11-12T06:01:28;13.20;99.90
11764;DHT22;5939;56.522;14.950;2022-11-12T06:03:54;13.20;99.90
11764;DHT22;5939;56.522;14.950;2022-11-12T06:06:20;13.20;99.90
11764;DHT22;5939;56.522;14.950;2022-11-12T06:08:46;13.20;99.90
11764;DHT22;5939;56.522;14.950;2022-11-12T06:11:12;13.20;99.90
11764;DHT22;5939;56.522;14.950;2022-11-12T06:13:37;13.20;99.90
11764;DHT22;5939;56.522;14.950;2022-11-12T06:16:03;13.20;99.90
11764;DHT22;5939;56.522;14.950;2022-11-12T06:18:29;13.20;99.90
11764;DHT22;5939;56.522;14.950;2022-11-12T06:21:09;13.20;99.90
11764;DHT22;5939;56.522;14.950;2022-11-12T06:23:44;13.20;99.90
11764;DHT22;5939;56.522;14.950;2022-11-12T06:26:10;13.20;99.90
11764;DHT22;5939;56.522;14.950;2022-11-12T06:28:35;13.20;99.90
11764;DHT22;5939;56.522;14.950;2022-11-12T06:31:01;13.20;99.90
11764;DHT22;5939;56.522;14.950;2022-11-12T06:33:27;13.20;99.90
11764;DHT22;5939;56.522;14.950;2022-11-12T06:36:00;13.20;99.90
11764;DHT22;5939;56.522;14.950;2022-11-12T06:38:31;13.20;99.90
11764;DHT22;5939;56.522;14.950;2022-11-12T06:40:57;13.20;99.90
11764;DHT22;5939;56.522;14.950;2022-11-12T06:43:23;13.20;99.90
11764;DHT22;5939;56.522;14.950;2022-11-12T06:45:49;13.20;99.90
11764;DHT22;5939;56.522;14.950;2022-11-12T06:48:14;13.20;99.90
11764;DHT22;5939;56.522;14.950;2022-11-12T06:50:40;13.20;99.90
11764;DHT22;5939;56.522;14.950;2022-11-12T06:53:05;13.20;99.90
11764;DHT22;5939;56.522;14.950;2022-11-12T06:55:32;13.20;99.90
11764;DHT22;5939;56.522;14.950;2022-11-12T06:57:58;13.20;99.90
11764;DHT22;5939;56.522;14.950;2022-11-12T07:00:23;13.20;99.90
11764;DHT22;5939;56.522;14.950;2022-11-12T07:02:49;13.20;99.90
11764;DHT22;5939;56.522;14.950;2022-11-12T07:05:15;13.20;99.90
11764;DHT22;5939;56.522;14.950;2022-11-12T07:07:40;13.20;99.90
11764;DHT22;5939;56.522;14.950;2022-11-12T07:10:06;13.20;99.90
11764;DHT22;5939;56.522;14.950;2022-11-12T07:12:32;13.20;99.90
11764;DHT22;5939;56.522;14.950;2022-11-12T07:14:58;13.20;99.90
11764;DHT22;5939;56.522;14.950;2022-11-12T07:17:23;13.20;99.90
11764;DHT22;5939;56.522;14.950;2022-11-12T07:19:49;13.20;99.90
11764;DHT22;5939;56.522;14.950;2022-11-12T07:22:15;13.20;99.90
11764;DHT22;5939;56.522;14.950;2022-11-12T07:24:40;13.20;99.90
11764;DHT22;5939;56.522;14.950;2022-11-12T07:27:06;13.30;99.90
11764;DHT22;5939;56.522;14.950;2022-11-12T07:29:31;13.30;99.90
11764;DHT22;5939;56.522;14.950;2022-11-12T07:31:57;13.30;99.90
11764;DHT22;5939;56.522;14.950;2022-11-12T07:34:22;13.30;99.90
11764;DHT22;5939;56.522;14.950;2022-11-12T07:36:48;13.30;99.90
11764;DHT22;5939;56.522;14.950;2022-11-12T07:39:19;13.30;99.90
11764;DHT22;5939;56.522;14.950;2022-11-12T07:41:44;13.30;99.90
11764;DHT22;5939;56.522;14.950;2022-11-12T07:44:10;13.30;99.90
11764;DHT22;5939;56.522;14.950;2022-11-12T07:46:36;13.30;99.90
11764;DHT22;5939;56.522;14.950;2022-11-12T07:49:01;13.30;99.90
11764;DHT22;5939;56.522;14.950;2022-11-12T07:51:28;13.30;99.90
11764;DHT22;5939;56.522;14.950;2022-11-12T07:53:56;13.30;99.90
11764;DHT22;5939;56.522;14.950;2022-11-12T07:56:23;13.30;99.90
11764;DHT22;5939;56.522;14.950;2022-11-12T07:58:49;13.30;99.90
11764;DHT22;5939;56.522;14.950;2022-11-12T08:03:55;13.30;99.90
11764;DHT22;5939;56.522;14.950;2022-11-12T08:06:21;13.30;99.90
11764;DHT22;5939;56.522;14.950;2022-11-12T08:08:50;13.30;99.90
11764;DHT22;5939;56.522;14.950;2022-11-12T08:11:17;13.30;99.90
11764;DHT22;5939;56.522;14.950;2022-11-12T08:13:43;13.30;99.90
11764;DHT22;5939;56.522;14.950;2022-11-12T08:16:08;13.30;99.90
11764;DHT22;5939;56.522;14.950;2022-11-12T08:18:34;13.30;99.90
11764;DHT22;5939;56.522;14.950;2022-11-12T08:21:01;13.30;99.90
11764;DHT22;5939;56.522;14.950;2022-11-12T08:23:28;13.40;99.90
11764;DHT22;5939;56.522;14.950;2022-11-12T08:26:02;13.40;99.90
11764;DHT22;5939;56.522;14.950;2022-11-12T08:28:28;13.40;99.90
11764;DHT22;5939;56.522;14.950;2022-11-12T08:30:54;13.40;99.90
11764;DHT22;5939;56.522;14.950;2022-11-12T08:33:21;13.40;99.90
11764;DHT22;5939;56.522;14.950;2022-11-12T08:35:47;13.40;99.90
11764;DHT22;5939;56.522;14.950;2022-11-12T08:38:13;13.40;99.90
11764;DHT22;5939;56.522;14.950;2022-11-12T08:40:39;13.40;99.90
11764;DHT22;5939;56.522;14.950;2022-11-12T08:43:08;13.40;99.90
11764;DHT22;5939;56.522;14.950;2022-11-12T08:45:35;13.40;99.90
11764;DHT22;5939;56.522;14.950;2022-11-12T08:48:04;13.40;99.90
11764;DHT22;5939;56.522;14.950;2022-11-12T08:50:30;13.40;99.90
11764;DHT22;5939;56.522;14.950;2022-11-12T08:53:00;13.40;99.90
11764;DHT22;5939;56.522;14.950;2022-11-12T08:55:26;13.40;99.90
11764;DHT22;5939;56.522;14.950;2022-11-12T08:57:52;13.40;99.90
11764;DHT22;5939;56.522;14.950;2022-11-12T09:00:18;13.50;99.90
11764;DHT22;5939;56.522;14.950;2022-11-12T09:02:43;13.40;99.90
11764;DHT22;5939;56.522;14.950;2022-11-12T09:05:09;13.50;99.90
11764;DHT22;5939;56.522;14.950;2022-11-12T09:07:35;13.50;99.90
11764;DHT22;5939;56.522;14.950;2022-11-12T09:10:00;13.50;99.90
11764;DHT22;5939;56.522;14.950;2022-11-12T09:12:26;13.50;99.90
11764;DHT22;5939;56.522;14.950;2022-11-12T09:14:52;13.50;99.90
11764;DHT22;5939;56.522;14.950;2022-11-12T09:17:18;13.50;99.90
11764;DHT22;5939;56.522;14.950;2022-11-12T09:19:44;13.50;99.90
11764;DHT22;5939;56.522;14.950;2022-11-12T09:22:09;13.50;99.90
11764;DHT22;5939;56.522;14.950;2022-11-12T09:24:35;13.50;99.90
11764;DHT22;5939;56.522;14.950;2022-11-12T09:27:00;13.50;99.90
11764;DHT22;5939;56.522;14.950;2022-11-12T09:29:26;13.50;99.90
11764;DHT22;5939;56.522;14.950;2022-11-12T09:31:52;13.50;99.90
11764;DHT22;5939;56.522;14.950;2022-11-12T09:34:18;13.50;99.90
11764;DHT22;5939;56.522;14.950;2022-11-12T09:36:44;13.50;99.90
11764;DHT22;5939;56.522;14.950;2022-11-12T09:39:09;13.50;99.90
11764;DHT22;5939;56.522;14.950;2022-11-12T09:41:37;13.50;99.90
11764;DHT22;5939;56.522;14.950;2022-11-12T09:44:12;13.50;99.90
11764;DHT22;5939;56.522;14.950;2022-11-12T09:46:56;13.60;99.90
11764;DHT22;5939;56.522;14.950;2022-11-12T09:49:28;13.60;99.90
11764;DHT22;5939;56.522;14.950;2022-11-12T09:52:30;13.60;99.90
11764;DHT22;5939;56.522;14.950;2022-11-12T09:55:05;13.60;99.90
11764;DHT22;5939;56.522;14.950;2022-11-12T09:57:32;13.60;99.90
11764;DHT22;5939;56.522;14.950;2022-11-12T09:59:58;13.60;99.90
11764;DHT22;5939;56.522;14.950;2022-11-12T10:02:35;13.60;99.90
11764;DHT22;5939;56.522;14.950;2022-11-12T10:05:40;13.60;99.90
11764;DHT22;5939;56.522;14.950;2022-11-12T10:09:01;13.60;99.90
11764;DHT22;5939;56.522;14.950;2022-11-12T10:14:18;13.60;99.90
11764;DHT22;5939;56.522;14.950;2022-11-12T10:16:57;13.60;99.90
11764;DHT22;5939;56.522;14.950;2022-11-12T10:19:52;13.60;99.90
11764;DHT22;5939;56.522;14.950;2022-11-12T10:22:34;13.60;99.90
11764;DHT22;5939;56.522;14.950;2022-11-12T10:25:15;13.60;99.90
11764;DHT22;5939;56.522;14.950;2022-11-12T10:27:42;13.60;99.90
11764;DHT22;5939;56.522;14.950;2022-11-12T10:30:19;13.60;99.90
11764;DHT22;5939;56.522;14.950;2022-11-12T10:32:46;13.70;99.90
11764;DHT22;5939;56.522;14.950;2022-11-12T10:35:15;13.70;99.90
11764;DHT22;5939;56.522;14.950;2022-11-12T10:37:53;13.70;99.90
11764;DHT22;5939;56.522;14.950;2022-11-12T10:43:03;13.70;99.90
11764;DHT22;5939;56.522;14.950;2022-11-12T10:45:29;13.70;99.90
11764;DHT22;5939;56.522;14.950;2022-11-12T10:47:55;13.70;99.90
11764;DHT22;5939;56.522;14.950;2022-11-12T10:50:28;13.70;99.90
11764;DHT22;5939;56.522;14.950;2022-11-12T10:53:02;13.80;99.90
11764;DHT22;5939;56.522;14.950;2022-11-12T10:55:30;13.80;99.90
11764;DHT22;5939;56.522;14.950;2022-11-12T11:00:36;13.80;99.90
11764;DHT22;5939;56.522;14.950;2022-11-12T11:03:20;13.80;99.90
11764;DHT22;5939;56.522;14.950;2022-11-12T11:05:56;13.80;99.90
11764;DHT22;5939;56.522;14.950;2022-11-12T11:08:42;13.80;99.90
11764;DHT22;5939;56.522;14.950;2022-11-12T11:11:26;13.80;99.90
11764;DHT22;5939;56.522;14.950;2022-11-12T11:13:54;13.90;99.90
11764;DHT22;5939;56.522;14.950;2022-11-12T11:16:22;13.90;99.90
11764;DHT22;5939;56.522;14.950;2022-11-12T11:18:53;13.90;99.90
11764;DHT22;5939;56.522;14.950;2022-11-12T11:24:30;13.90;99.90
11764;DHT22;5939;56.522;14.950;2022-11-12T11:30:11;13.90;99.90
11764;DHT22;5939;56.522;14.950;2022-11-12T11:32:51;13.90;99.90
11764;DHT22;5939;56.522;14.950;2022-11-12T11:38:57;14.00;99.90
11764;DHT22;5939;56.522;14.950;2022-11-12T11:49:56;14.00;99.90
11764;DHT22;5939;56.522;14.950;2022-11-12T12:06:29;14.10;99.90
11764;DHT22;5939;56.522;14.950;2022-11-12T12:09:27;14.10;99.90
11764;DHT22;5939;56.522;14.950;2022-11-12T12:15:03;14.10;99.90
11764;DHT22;5939;56.522;14.950;2022-11-12T12:20:22;14.10;99.90
11764;DHT22;5939;56.522;14.950;2022-11-12T12:23:00;14.10;99.90
11764;DHT22;5939;56.522;14.950;2022-11-12T12:25:35;14.10;99.90
11764;DHT22;5939;56.522;14.950;2022-11-12T12:30:57;14.20;99.90
11764;DHT22;5939;56.522;14.950;2022-11-12T12:33:42;14.20;99.90
11764;DHT22;5939;56.522;14.950;2022-11-12T12:36:15;14.20;99.90
11764;DHT22;5939;56.522;14.950;2022-11-12T12:38:56;14.20;99.90
11764;DHT22;5939;56.522;14.950;2022-11-12T12:44:04;14.20;99.90
11764;DHT22;5939;56.522;14.950;2022-11-12T12:46:33;14.20;99.90
11764;DHT22;5939;56.522;14.950;2022-11-12T12:49:03;14.20;99.90
11764;DHT22;5939;56.522;14.950;2022-11-12T12:51:30;14.20;99.90
11764;DHT22;5939;56.522;14.950;2022-11-12T12:53:56;14.20;99.90
11764;DHT22;5939;56.522;14.950;2022-11-12T12:58:54;14.20;99.90
11764;DHT22;5939;56.522;14.950;2022-11-12T13:03:51;14.20;99.90
11764;DHT22;5939;56.522;14.950;2022-11-12T13:09:34;14.30;99.90
11764;DHT22;5939;56.522;14.950;2022-11-12T13:19:43;14.30;99.90
11764;DHT22;5939;56.522;14.950;2022-11-12T13:32:58;14.30;99.90
11764;DHT22;5939;56.522;14.950;2022-11-12T13:35:35;14.30;99.90
11764;DHT22;5939;56.522;14.950;2022-11-12T13:40:53;14.30;99.90
11764;DHT22;5939;56.522;14.950;2022-11-12T13:48:46;14.30;99.90
11764;DHT22;5939;56.522;14.950;2022-11-12T13:51:19;14.30;99.90
11764;DHT22;5939;56.522;14.950;2022-11-12T13:53:46;14.30;99.90
11764;DHT22;5939;56.522;14.950;2022-11-12T13:56:33;14.30;99.90
11764;DHT22;5939;56.522;14.950;2022-11-12T13:59:16;14.30;99.90
11764;DHT22;5939;56.522;14.950;2022-11-12T14:01:43;14.30;99.90
11764;DHT22;5939;56.522;14.950;2022-11-12T14:04:14;14.30;99.90
11764;DHT22;5939;56.522;14.950;2022-11-12T14:06:49;14.30;99.90
11764;DHT22;5939;56.522;14.950;2022-11-12T14:12:32;14.30;99.90
11764;DHT22;5939;56.522;14.950;2022-11-12T14:15:40;14.30;99.90
11764;DHT22;5939;56.522;14.950;2022-11-12T14:20:53;14.30;99.90
11764;DHT22;5939;56.522;14.950;2022-11-12T14:23:21;14.30;99.90
11764;DHT22;5939;56.522;14.950;2022-11-12T14:25:51;14.30;99.90
11764;DHT22;5939;56.522;14.950;2022-11-12T14:28:34;14.30;99.90
11764;DHT22;5939;56.522;14.950;2022-11-12T14:31:01;14.30;99.90
11764;DHT22;5939;56.522;14.950;2022-11-12T14:33:29;14.30;99.90
11764;DHT22;5939;56.522;14.950;2022-11-12T14:36:14;14.30;99.90
11764;DHT22;5939;56.522;14.950;2022-11-12T14:38:45;14.30;99.90
11764;DHT22;5939;56.522;14.950;2022-11-12T14:41:23;14.20;99.90
11764;DHT22;5939;56.522;14.950;2022-11-12T14:43:54;14.20;99.90
11764;DHT22;5939;56.522;14.950;2022-11-12T14:46:42;14.20;99.90
11764;DHT22;5939;56.522;14.950;2022-11-12T14:49:38;14.20;99.90
11764;DHT22;5939;56.522;14.950;2022-11-12T14:52:20;14.20;99.90
11764;DHT22;5939;56.522;14.950;2022-11-12T14:54:52;14.20;99.90
11764;DHT22;5939;56.522;14.950;2022-11-12T14:57:27;14.20;99.90
11764;DHT22;5939;56.522;14.950;2022-11-12T14:59:53;14.20;99.90
11764;DHT22;5939;56.522;14.950;2022-11-12T15:02:26;14.20;99.90
11764;DHT22;5939;56.522;14.950;2022-11-12T15:05:13;14.20;99.90
11764;DHT22;5939;56.522;14.950;2022-11-12T15:11:02;14.10;99.90
11764;DHT22;5939;56.522;14.950;2022-11-12T15:13:23;14.20;99.90
11764;DHT22;5939;56.522;14.950;2022-11-12T15:16:06;14.10;99.90
11764;DHT22;5939;56.522;14.950;2022-11-12T15:18:33;14.10;99.90
11764;DHT22;5939;56.522;14.950;2022-11-12T15:21:25;14.10;99.90
11764;DHT22;5939;56.522;14.950;2022-11-12T15:24:04;14.10;99.90
11764;DHT22;5939;56.522;14.950;2022-11-12T15:26:41;14.10;99.90
11764;DHT22;5939;56.522;14.950;2022-11-12T15:31:50;14.10;99.90
11764;DHT22;5939;56.522;14.950;2022-11-12T15:37:05;14.00;99.90
11764;DHT22;5939;56.522;14.950;2022-11-12T15:39:46;14.00;99.90
11764;DHT22;5939;56.522;14.950;2022-11-12T15:42:24;14.00;99.90
11764;DHT22;5939;56.522;14.950;2022-11-12T15:44:57;14.00;99.90
11764;DHT22;5939;56.522;14.950;2022-11-12T15:47:23;14.00;99.90
11764;DHT22;5939;56.522;14.950;2022-11-12T15:49:58;14.00;99.90
11764;DHT22;5939;56.522;14.950;2022-11-12T15:52:24;14.00;99.90
11764;DHT22;5939;56.522;14.950;2022-11-12T15:54:50;14.00;99.90
11764;DHT22;5939;56.522;14.950;2022-11-12T15:57:26;14.00;99.90
11764;DHT22;5939;56.522;14.950;2022-11-12T16:00:04;13.90;99.90
11764;DHT22;5939;56.522;14.950;2022-11-12T16:02:30;13.90;99.90
11764;DHT22;5939;56.522;14.950;2022-11-12T16:04:56;13.90;99.90
11764;DHT22;5939;56.522;14.950;2022-11-12T16:07:22;13.90;99.90
11764;DHT22;5939;56.522;14.950;2022-11-12T16:09:48;13.90;99.90
11764;DHT22;5939;56.522;14.950;2022-11-12T16:12:14;13.90;99.90
11764;DHT22;5939;56.522;14.950;2022-11-12T16:14:40;13.90;99.90
11764;DHT22;5939;56.522;14.950;2022-11-12T16:17:12;13.90;99.90
11764;DHT22;5939;56.522;14.950;2022-11-12T16:19:39;13.90;99.90
11764;DHT22;5939;56.522;14.950;2022-11-12T16:22:04;13.90;99.90
11764;DHT22;5939;56.522;14.950;2022-11-12T16:24:40;13.90;99.90
11764;DHT22;5939;56.522;14.950;2022-11-12T16:27:06;13.80;99.90
11764;DHT22;5939;56.522;14.950;2022-11-12T16:29:33;13.80;99.90
11764;DHT22;5939;56.522;14.950;2022-11-12T16:31:59;13.80;99.90
11764;DHT22;5939;56.522;14.950;2022-11-12T16:34:24;13.80;99.90
11764;DHT22;5939;56.522;14.950;2022-11-12T16:36:50;13.80;99.90
11764;DHT22;5939;56.522;14.950;2022-11-12T16:39:16;13.80;99.90
11764;DHT22;5939;56.522;14.950;2022-11-12T16:41:41;13.80;99.90
11764;DHT22;5939;56.522;14.950;2022-11-12T16:44:07;13.70;99.90
11764;DHT22;5939;56.522;14.950;2022-11-12T16:46:37;13.70;99.90
11764;DHT22;5939;56.522;14.950;2022-11-12T16:49:05;13.70;99.90
11764;DHT22;5939;56.522;14.950;2022-11-12T16:51:31;13.70;99.90
11764;DHT22;5939;56.522;14.950;2022-11-12T16:53:56;13.70;99.90
11764;DHT22;5939;56.522;14.950;2022-11-12T16:56:24;13.70;99.90
11764;DHT22;5939;56.522;14.950;2022-11-12T16:58:51;13.70;99.90
11764;DHT22;5939;56.522;14.950;2022-11-12T17:01:29;13.60;99.90
11764;DHT22;5939;56.522;14.950;2022-11-12T17:03:56;13.60;99.90
11764;DHT22;5939;56.522;14.950;2022-11-12T17:06:23;13.60;99.90
11764;DHT22;5939;56.522;14.950;2022-11-12T17:08:55;13.60;99.90
11764;DHT22;5939;56.522;14.950;2022-11-12T17:11:21;13.60;99.90
11764;DHT22;5939;56.522;14.950;2022-11-12T17:13:46;13.60;99.90
11764;DHT22;5939;56.522;14.950;2022-11-12T17:16:12;13.50;99.90
11764;DHT22;5939;56.522;14.950;2022-11-12T17:18:38;13.50;99.90
11764;DHT22;5939;56.522;14.950;2022-11-12T17:21:15;13.50;99.90
11764;DHT22;5939;56.522;14.950;2022-11-12T17:23:42;13.50;99.90
11764;DHT22;5939;56.522;14.950;2022-11-12T17:26:14;13.50;99.90
11764;DHT22;5939;56.522;14.950;2022-11-12T17:28:40;13.40;99.90
11764;DHT22;5939;56.522;14.950;2022-11-12T17:33:35;13.40;99.90
11764;DHT22;5939;56.522;14.950;2022-11-12T17:36:03;13.40;99.90
11764;DHT22;5939;56.522;14.950;2022-11-12T17:38:29;13.40;99.90